Time;durP1;ratioP1;P1;durP2;ratioP2;P2;SDS_P1;SDS_P2;PMS_P1;PMS_P2;Temp;Humidity;BMP_temperature;BMP_pressure;BME280_temperature;BME280_humidity;BME280_pressure;Samples;Min_cycle;Max_cycle;Signal;HPM_P1;HPM_P2
2021/12/29 00:00:10;;;;;;;2.33;2.13;;;11.90;99.90;;;;;;4993781;28;20171;-78
2021/12/29 00:02:38;;;;;;;2.55;2.10;;;11.90;99.90;;;;;;5010336;28;20205;-78
2021/12/29 00:05:05;;;;;;;2.38;2.17;;;11.90;99.90;;;;;;4994176;28;20202;-78
2021/12/29 00:07:30;;;;;;;2.20;2.00;;;11.90;99.90;;;;;;5011599;28;20173;-78
2021/12/29 00:09:59;;;;;;;2.80;2.60;;;11.90;99.90;;;;;;4994126;28;20245;-77
2021/12/29 00:12:26;;;;;;;3.70;3.00;;;11.90;99.90;;;;;;4994305;28;20273;-78
2021/12/29 00:14:53;;;;;;;3.45;2.83;;;11.90;99.90;;;;;;5011597;28;20240;-78
2021/12/29 00:17:19;;;;;;;3.40;2.90;;;11.90;99.90;;;;;;4995307;28;20178;-78
2021/12/29 00:19:45;;;;;;;2.92;2.63;;;11.90;99.90;;;;;;5015647;28;20208;-78
2021/12/29 00:22:11;;;;;;;3.13;2.60;;;11.90;99.90;;;;;;5015196;28;20257;-78
2021/12/29 00:24:36;;;;;;;2.37;2.17;;;11.90;99.90;;;;;;5014906;28;20209;-78
2021/12/29 00:27:04;;;;;;;3.13;2.83;;;11.90;99.90;;;;;;4997338;28;20583;-78
2021/12/29 00:29:30;;;;;;;3.45;3.15;;;11.90;99.90;;;;;;5015035;28;20202;-78
2021/12/29 00:32:14;;;;;;;4.05;3.20;;;11.90;99.90;;;;;;5015094;28;20613;-78
2021/12/29 00:34:59;;;;;;;3.25;2.95;;;11.90;99.90;;;;;;5000176;28;20170;-76
2021/12/29 00:37:43;;;;;;;3.47;3.17;;;11.90;99.90;;;;;;5014446;28;20533;-76
2021/12/29 00:40:41;;;;;;;3.15;2.85;;;11.90;99.90;;;;;;5001960;28;20222;-76
2021/12/29 00:43:33;;;;;;;3.92;3.03;;;11.80;99.90;;;;;;4998650;28;20226;-77
2021/12/29 00:46:01;;;;;;;3.13;2.88;;;11.80;99.90;;;;;;5014145;28;20556;-76
2021/12/29 00:48:35;;;;;;;4.70;3.70;;;11.80;99.90;;;;;;5013257;28;20170;-76
2021/12/29 00:51:02;;;;;;;5.60;3.60;;;11.80;99.90;;;;;;5014708;28;20190;-75
2021/12/29 00:53:28;;;;;;;4.13;3.78;;;11.80;99.90;;;;;;5014043;28;20186;-76
2021/12/29 00:55:53;;;;;;;5.10;3.97;;;11.80;99.90;;;;;;5012859;28;20170;-76
2021/12/29 00:58:19;;;;;;;3.70;3.40;;;11.80;99.90;;;;;;5012893;28;20505;-76
2021/12/29 01:00:45;;;;;;;5.27;3.30;;;11.80;99.90;;;;;;5014298;28;20166;-77
2021/12/29 01:03:11;;;;;;;4.73;3.20;;;11.80;99.90;;;;;;5014060;28;20190;-76
2021/12/29 01:05:37;;;;;;;2.60;2.20;;;11.80;99.90;;;;;;5014217;28;20194;-76
2021/12/29 01:08:04;;;;;;;3.60;3.30;;;11.80;99.90;;;;;;5013991;28;20588;-77
2021/12/29 01:10:30;;;;;;;4.40;3.05;;;11.80;99.90;;;;;;4980579;28;20170;-76
2021/12/29 01:13:01;;;;;;;2.93;2.67;;;11.80;99.90;;;;;;5014321;28;20183;-76
2021/12/29 01:15:36;;;;;;;3.50;2.95;;;11.80;99.90;;;;;;5012939;28;20565;-76
2021/12/29 01:18:05;;;;;;;3.40;3.10;;;11.80;99.90;;;;;;4996737;28;20181;-76
2021/12/29 01:20:32;;;;;;;3.55;3.00;;;11.80;99.90;;;;;;5018073;28;20182;-75
2021/12/29 01:22:59;;;;;;;3.30;3.00;;;11.80;99.90;;;;;;4997297;28;20198;-76
2021/12/29 01:25:26;;;;;;;3.20;2.90;;;11.80;99.90;;;;;;5015355;28;20217;-76
2021/12/29 01:27:52;;;;;;;5.45;3.53;;;11.80;99.90;;;;;;4996128;28;20163;-76
2021/12/29 01:30:18;;;;;;;3.65;2.75;;;11.80;99.90;;;;;;4980402;28;20227;-76
2021/12/29 01:32:44;;;;;;;2.55;2.33;;;11.80;99.90;;;;;;5013793;28;20189;-77
2021/12/29 01:35:13;;;;;;;3.10;2.90;;;11.80;99.90;;;;;;4996344;28;20170;-76
2021/12/29 01:37:39;;;;;;;4.10;2.40;;;11.80;99.90;;;;;;5013161;28;20561;-76
2021/12/29 01:40:09;;;;;;;2.15;1.88;;;11.80;99.90;;;;;;5013162;28;20660;-76
2021/12/29 01:42:35;;;;;;;3.35;2.47;;;11.80;99.90;;;;;;5013184;28;20248;-77
2021/12/29 01:45:02;;;;;;;2.37;2.07;;;11.90;99.90;;;;;;5013344;28;20237;-76
2021/12/29 01:47:30;;;;;;;2.10;1.90;;;11.80;99.90;;;;;;5013224;28;20179;-76
2021/12/29 01:49:56;;;;;;;2.55;1.80;;;11.80;99.90;;;;;;4996703;28;20174;-76
2021/12/29 01:52:27;;;;;;;2.10;2.00;;;11.90;99.90;;;;;;5013396;28;20606;-76
2021/12/29 01:54:53;;;;;;;2.60;1.60;;;11.90;99.90;;;;;;4995540;28;20249;-76
2021/12/29 01:57:19;;;;;;;1.67;1.57;;;11.90;99.90;;;;;;5013522;28;20166;-76
2021/12/29 01:59:46;;;;;;;2.10;1.90;;;11.90;99.90;;;;;;5011761;28;20617;-76
2021/12/29 02:02:16;;;;;;;3.00;2.15;;;11.90;99.90;;;;;;5013241;28;20195;-76
2021/12/29 02:04:44;;;;;;;1.92;1.70;;;11.90;99.90;;;;;;5012709;28;20190;-76
2021/12/29 02:07:10;;;;;;;2.42;2.22;;;11.90;99.90;;;;;;5012850;28;20198;-76
2021/12/29 02:09:37;;;;;;;3.40;1.90;;;11.90;99.90;;;;;;5012728;28;20170;-76
2021/12/29 02:12:04;;;;;;;3.05;2.60;;;11.90;99.90;;;;;;5013100;28;20162;-76
2021/12/29 02:14:30;;;;;;;1.70;1.60;;;11.90;99.90;;;;;;5012688;28;20296;-76
2021/12/29 02:16:56;;;;;;;2.87;2.60;;;11.90;99.90;;;;;;5012341;28;20651;-76
2021/12/29 02:19:24;;;;;;;2.73;2.53;;;11.90;99.90;;;;;;5012675;28;21077;-76
2021/12/29 02:22:01;;;;;;;2.58;2.13;;;11.90;99.90;;;;;;4995003;28;20569;-76
2021/12/29 02:24:37;;;;;;;3.92;2.80;;;11.90;99.90;;;;;;5012322;28;20689;-76
2021/12/29 02:27:05;;;;;;;2.88;2.30;;;12.00;99.90;;;;;;4994419;28;20174;-76
2021/12/29 02:29:32;;;;;;;3.25;2.80;;;11.90;99.90;;;;;;4994298;28;20181;-75
2021/12/29 02:31:57;;;;;;;2.50;2.30;;;11.90;99.90;;;;;;5012271;28;20174;-76
2021/12/29 02:34:23;;;;;;;3.17;2.87;;;11.90;99.90;;;;;;5012706;28;20487;-75
2021/12/29 02:36:49;;;;;;;2.53;2.33;;;11.90;99.90;;;;;;4994304;28;20186;-76
2021/12/29 02:39:20;;;;;;;3.67;3.37;;;11.90;99.90;;;;;;5011992;28;20175;-77
2021/12/29 02:41:50;;;;;;;2.50;2.30;;;11.90;99.90;;;;;;5012259;28;20174;-76
2021/12/29 02:44:24;;;;;;;3.72;3.38;;;11.90;99.90;;;;;;5012189;28;20190;-76
2021/12/29 02:46:50;;;;;;;3.38;3.10;;;11.90;99.90;;;;;;4994076;28;20231;-76
2021/12/29 02:49:16;;;;;;;5.18;3.60;;;11.90;99.90;;;;;;5012381;28;20718;-76
2021/12/29 02:51:42;;;;;;;3.80;3.50;;;12.00;99.90;;;;;;5012361;28;20260;-76
2021/12/29 02:54:08;;;;;;;3.53;3.33;;;11.90;99.90;;;;;;4994187;28;20720;-76
2021/12/29 02:56:34;;;;;;;5.28;3.83;;;11.90;99.90;;;;;;4993946;28;20573;-76
2021/12/29 02:59:00;;;;;;;3.75;3.45;;;12.00;99.90;;;;;;4994513;28;20574;-76
2021/12/29 03:01:27;;;;;;;4.70;3.40;;;12.00;99.90;;;;;;5012339;28;20225;-76
2021/12/29 03:03:55;;;;;;;3.83;3.53;;;12.00;99.90;;;;;;5011506;28;20194;-76
2021/12/29 03:06:20;;;;;;;4.82;3.92;;;12.00;99.90;;;;;;5011651;28;20213;-75
2021/12/29 03:08:46;;;;;;;3.63;3.23;;;12.00;99.90;;;;;;5011909;28;20174;-75
2021/12/29 03:11:12;;;;;;;4.63;4.10;;;12.00;99.90;;;;;;5012075;28;20173;-75
2021/12/29 03:13:39;;;;;;;3.63;3.33;;;12.00;99.90;;;;;;5011580;28;20614;-75
2021/12/29 03:16:06;;;;;;;3.75;3.08;;;12.00;99.90;;;;;;5011141;28;20185;-75
2021/12/29 03:18:33;;;;;;;4.68;3.25;;;12.00;99.90;;;;;;4994614;28;20579;-75
2021/12/29 03:20:59;;;;;;;4.65;3.70;;;12.00;99.90;;;;;;5011777;28;20266;-75
2021/12/29 03:23:25;;;;;;;3.17;2.88;;;12.00;99.90;;;;;;4977863;28;20194;-75
2021/12/29 03:25:52;;;;;;;3.67;3.10;;;11.90;99.90;;;;;;5011367;28;20567;-75
2021/12/29 03:28:20;;;;;;;3.10;2.85;;;12.00;99.90;;;;;;5012059;28;20169;-75
2021/12/29 03:30:50;;;;;;;5.97;3.72;;;12.00;99.90;;;;;;5011698;28;20174;-75
2021/12/29 03:33:16;;;;;;;3.40;2.97;;;12.00;99.90;;;;;;4993961;28;20186;-75
2021/12/29 03:36:03;;;;;;;5.60;4.03;;;12.00;99.90;;;;;;4994187;28;20178;-75
2021/12/29 03:38:33;;;;;;;3.75;3.05;;;12.10;99.90;;;;;;5011842;28;20569;-75
2021/12/29 03:41:00;;;;;;;4.97;4.10;;;12.00;99.90;;;;;;4993973;28;20251;-75
2021/12/29 03:43:28;;;;;;;4.45;3.60;;;12.00;99.90;;;;;;5011109;28;20198;-75
2021/12/29 03:45:54;;;;;;;3.75;3.50;;;12.10;99.90;;;;;;5011139;28;20213;-75
2021/12/29 03:48:24;;;;;;;3.47;3.17;;;12.10;99.90;;;;;;5011463;28;20662;-75
2021/12/29 03:50:50;;;;;;;3.42;2.95;;;12.00;99.90;;;;;;5011735;28;20811;-75
2021/12/29 03:53:16;;;;;;;3.28;2.67;;;12.00;99.90;;;;;;5014371;28;20908;-75
2021/12/29 03:55:44;;;;;;;3.65;2.45;;;12.00;99.90;;;;;;4997773;28;20170;-75
2021/12/29 03:58:10;;;;;;;3.45;3.13;;;12.00;99.90;;;;;;4964842;28;20776;-75
2021/12/29 04:00:36;;;;;;;2.88;2.58;;;12.00;99.90;;;;;;5015586;28;20254;-75
2021/12/29 04:03:04;;;;;;;2.97;2.60;;;12.00;99.90;;;;;;5014999;28;20194;-75
2021/12/29 04:05:31;;;;;;;3.00;2.72;;;12.00;99.90;;;;;;5015359;28;20336;-76
2021/12/29 04:07:58;;;;;;;3.65;3.20;;;12.00;99.90;;;;;;5014764;28;20225;-75
2021/12/29 04:10:24;;;;;;;3.00;2.75;;;12.00;99.90;;;;;;5014810;28;20172;-75
2021/12/29 04:12:51;;;;;;;2.75;2.55;;;12.00;99.90;;;;;;5015121;28;20202;-75
2021/12/29 04:15:17;;;;;;;4.30;3.28;;;12.00;99.90;;;;;;5014921;28;20174;-75
2021/12/29 04:17:44;;;;;;;4.40;3.17;;;12.00;99.90;;;;;;5014867;28;20162;-75
2021/12/29 04:23:00;;;;;;;2.80;2.60;;;12.00;99.90;;;;;;4997648;28;20198;-75
2021/12/29 04:25:27;;;;;;;3.17;2.95;;;11.90;99.90;;;;;;5014846;28;20194;-75
2021/12/29 04:27:55;;;;;;;5.07;3.85;;;12.00;99.90;;;;;;5014354;28;20273;-75
2021/12/29 04:30:22;;;;;;;3.40;2.85;;;12.00;99.90;;;;;;5014196;28;20787;-75
2021/12/29 04:32:50;;;;;;;7.45;3.95;;;11.90;99.90;;;;;;5014907;28;20273;-76
2021/12/29 04:35:16;;;;;;;6.65;3.92;;;11.90;99.90;;;;;;5014970;28;20197;-75
2021/12/29 04:37:41;;;;;;;3.70;3.00;;;11.90;99.90;;;;;;5013984;28;20202;-75
2021/12/29 04:40:08;;;;;;;3.93;3.63;;;11.90;99.90;;;;;;5014843;28;20577;-75
2021/12/29 04:42:34;;;;;;;4.68;3.90;;;11.80;99.90;;;;;;5014457;28;20216;-75
2021/12/29 04:44:59;;;;;;;4.43;4.03;;;11.80;99.90;;;;;;5013439;28;20281;-76
2021/12/29 04:47:29;;;;;;;4.77;4.33;;;11.80;99.90;;;;;;4996361;28;20699;-75
2021/12/29 04:49:59;;;;;;;4.47;4.15;;;11.80;99.90;;;;;;5014414;28;20569;-75
2021/12/29 04:52:25;;;;;;;4.03;3.63;;;11.80;99.90;;;;;;4996375;28;20186;-75
2021/12/29 04:54:50;;;;;;;4.22;3.83;;;11.80;99.90;;;;;;4996813;28;20174;-75
2021/12/29 04:57:16;;;;;;;4.40;4.00;;;11.80;99.90;;;;;;5013697;28;20231;-75
2021/12/29 04:59:43;;;;;;;4.05;3.58;;;11.80;99.90;;;;;;5014443;28;20273;-75
2021/12/29 05:02:09;;;;;;;4.78;3.75;;;11.80;99.90;;;;;;5013929;28;20319;-75
2021/12/29 05:04:45;;;;;;;4.68;4.28;;;11.70;99.90;;;;;;5013676;28;20174;-75
2021/12/29 05:09:57;;;;;;;3.72;3.42;;;11.70;99.90;;;;;;4980046;28;20261;-75
2021/12/29 05:12:22;;;;;;;4.40;3.55;;;11.70;99.90;;;;;;5013922;28;20197;-75
2021/12/29 05:14:48;;;;;;;5.80;4.20;;;11.70;99.90;;;;;;5013665;28;20167;-75
2021/12/29 05:17:14;;;;;;;3.63;3.33;;;11.70;99.90;;;;;;5012355;28;20528;-75
2021/12/29 05:19:40;;;;;;;4.40;3.40;;;11.70;99.90;;;;;;4996059;28;20261;-75
2021/12/29 05:22:06;;;;;;;4.27;3.90;;;11.70;99.90;;;;;;5013913;28;20174;-76
2021/12/29 05:24:32;;;;;;;4.57;3.95;;;11.70;99.90;;;;;;5013224;28;20716;-76
2021/12/29 05:26:58;;;;;;;5.15;4.00;;;11.70;99.90;;;;;;4995834;28;20179;-75
2021/12/29 05:29:25;;;;;;;5.97;4.20;;;11.70;99.90;;;;;;5013747;28;20256;-75
2021/12/29 05:31:51;;;;;;;4.55;4.15;;;11.70;99.90;;;;;;4996052;28;20172;-76
2021/12/29 05:34:16;;;;;;;5.30;4.80;;;11.70;99.90;;;;;;5011972;28;20658;-75
2021/12/29 05:36:42;;;;;;;5.23;4.77;;;11.70;99.90;;;;;;5012689;28;20261;-75
2021/12/29 05:39:08;;;;;;;5.13;4.60;;;11.80;99.90;;;;;;5013582;28;20244;-75
2021/12/29 05:41:34;;;;;;;4.60;4.20;;;11.70;99.90;;;;;;5012151;28;20609;-75
2021/12/29 05:44:00;;;;;;;5.10;4.63;;;11.80;99.90;;;;;;4996022;28;20221;-76
2021/12/29 05:46:25;;;;;;;6.30;5.30;;;11.80;99.90;;;;;;5012617;28;20715;-76
2021/12/29 05:48:51;;;;;;;7.20;5.50;;;11.80;99.90;;;;;;5012434;28;20170;-75
2021/12/29 05:51:17;;;;;;;6.40;5.37;;;11.80;99.90;;;;;;5013064;28;20221;-75
2021/12/29 05:53:43;;;;;;;7.13;6.40;;;11.80;99.90;;;;;;5013090;28;20186;-76
2021/12/29 05:56:09;;;;;;;7.40;5.40;;;11.80;99.90;;;;;;4979158;28;20588;-75
2021/12/29 05:58:35;;;;;;;7.20;6.50;;;11.80;99.90;;;;;;5013152;28;20253;-76
2021/12/29 06:01:02;;;;;;;7.13;5.85;;;11.80;99.90;;;;;;5013308;28;20606;-75
2021/12/29 06:03:28;;;;;;;7.10;5.40;;;11.80;99.90;;;;;;5012475;28;20190;-76
2021/12/29 06:05:53;;;;;;;7.60;6.70;;;11.80;99.90;;;;;;4978460;28;20666;-75
2021/12/29 06:08:19;;;;;;;5.87;5.27;;;11.80;99.90;;;;;;4978836;28;20178;-75
2021/12/29 06:10:45;;;;;;;7.00;6.23;;;11.80;99.90;;;;;;5013084;28;20213;-76
2021/12/29 06:13:11;;;;;;;8.43;7.73;;;11.70;99.90;;;;;;5012387;28;20621;-75
2021/12/29 06:15:37;;;;;;;7.90;7.20;;;11.70;99.90;;;;;;5012547;28;20569;-75
2021/12/29 06:18:03;;;;;;;7.60;5.60;;;11.70;99.90;;;;;;5013254;28;20178;-76
2021/12/29 06:20:29;;;;;;;7.57;6.88;;;11.70;99.90;;;;;;5012783;28;20508;-76
2021/12/29 06:22:55;;;;;;;7.43;6.68;;;11.70;99.90;;;;;;4995267;28;20216;-75
2021/12/29 06:25:21;;;;;;;8.60;7.70;;;11.70;99.90;;;;;;5012493;28;20202;-75
2021/12/29 06:27:48;;;;;;;7.50;6.80;;;11.70;99.90;;;;;;5011065;28;20277;-76
2021/12/29 06:30:16;;;;;;;8.15;7.28;;;11.70;99.90;;;;;;4994537;28;20178;-76
2021/12/29 06:32:44;;;;;;;6.85;6.13;;;11.70;99.90;;;;;;5012160;28;20200;-76
2021/12/29 06:35:11;;;;;;;8.95;7.07;;;11.70;99.90;;;;;;4994290;28;20171;-76
2021/12/29 06:37:37;;;;;;;8.80;7.90;;;11.70;99.90;;;;;;5011880;28;20176;-76
2021/12/29 06:40:05;;;;;;;9.57;6.60;;;11.70;99.90;;;;;;5011800;28;20846;-76
2021/12/29 06:42:31;;;;;;;7.78;6.97;;;11.70;99.90;;;;;;5011027;28;20209;-75
2021/12/29 06:44:57;;;;;;;9.80;8.10;;;11.70;99.90;;;;;;4995050;28;20205;-76
2021/12/29 06:47:24;;;;;;;8.70;7.80;;;11.70;99.90;;;;;;4994720;28;20694;-75
2021/12/29 06:49:50;;;;;;;8.60;7.75;;;11.70;99.90;;;;;;5012197;28;20182;-75
2021/12/29 06:52:16;;;;;;;7.78;7.00;;;11.70;99.90;;;;;;5014216;28;20305;-75
2021/12/29 06:54:41;;;;;;;10.57;7.67;;;11.70;99.90;;;;;;4995020;28;20253;-75
2021/12/29 06:57:07;;;;;;;8.77;6.97;;;11.70;99.90;;;;;;4994142;28;20646;-75
2021/12/29 06:59:33;;;;;;;7.47;6.50;;;11.70;99.90;;;;;;4995334;28;20174;-75
2021/12/29 07:02:00;;;;;;;7.63;7.03;;;11.70;99.90;;;;;;5011923;28;20651;-75
2021/12/29 07:04:25;;;;;;;7.50;6.78;;;11.70;99.90;;;;;;5011607;28;20313;-76
2021/12/29 07:06:52;;;;;;;7.13;6.47;;;11.70;99.90;;;;;;5011338;28;20210;-76
2021/12/29 07:09:19;;;;;;;5.90;5.30;;;11.80;99.90;;;;;;4994277;28;20557;-75
2021/12/29 07:11:45;;;;;;;11.15;6.13;;;11.70;99.90;;;;;;4994431;28;20185;-76
2021/12/29 07:14:11;;;;;;;7.57;6.40;;;11.80;99.90;;;;;;5011439;28;20287;-75
2021/12/29 07:16:38;;;;;;;5.33;4.83;;;11.80;99.90;;;;;;5011287;28;20565;-75
2021/12/29 07:19:05;;;;;;;4.97;4.47;;;11.80;99.90;;;;;;4993467;28;20589;-76
2021/12/29 07:21:31;;;;;;;5.88;4.35;;;11.80;99.90;;;;;;4994158;28;20745;-76
2021/12/29 07:23:57;;;;;;;5.20;4.37;;;11.80;99.90;;;;;;4993763;28;20276;-75
2021/12/29 07:26:23;;;;;;;5.30;4.80;;;11.80;99.90;;;;;;5011018;28;20288;-76
2021/12/29 07:28:50;;;;;;;6.95;5.43;;;11.80;99.90;;;;;;4994183;28;21114;-75
2021/12/29 07:31:16;;;;;;;7.35;6.65;;;11.80;99.90;;;;;;4994276;28;20185;-75
2021/12/29 07:33:43;;;;;;;7.43;6.65;;;11.80;99.90;;;;;;5010943;28;20290;-75
2021/12/29 07:36:09;;;;;;;7.73;6.70;;;11.80;99.90;;;;;;5011230;28;20261;-75
2021/12/29 07:38:34;;;;;;;7.87;6.40;;;11.90;99.90;;;;;;5011836;28;20266;-75
2021/12/29 07:41:00;;;;;;;9.27;5.40;;;11.90;99.90;;;;;;4993947;28;20566;-75
2021/12/29 07:43:26;;;;;;;6.38;4.85;;;11.90;99.90;;;;;;5009478;28;20569;-76
2021/12/29 07:45:54;;;;;;;7.72;3.75;;;11.90;99.90;;;;;;4977088;28;20748;-76
2021/12/29 07:48:26;;;;;;;10.88;4.25;;;11.90;99.90;;;;;;5011029;28;20167;-76
2021/12/29 07:50:52;;;;;;;5.97;3.28;;;11.90;99.90;;;;;;4993724;28;20194;-76
2021/12/29 07:53:18;;;;;;;4.13;3.30;;;11.90;99.90;;;;;;5010798;28;20234;-76
2021/12/29 07:55:43;;;;;;;5.40;3.00;;;11.90;99.90;;;;;;4993557;28;20612;-77
2021/12/29 07:58:10;;;;;;;3.58;3.05;;;12.00;99.90;;;;;;5010878;28;20171;-77
2021/12/29 08:00:35;;;;;;;4.47;3.30;;;12.00;99.90;;;;;;4993914;28;20181;-77
2021/12/29 08:03:01;;;;;;;3.53;2.53;;;12.00;99.90;;;;;;5010305;28;20286;-76
2021/12/29 08:05:27;;;;;;;3.27;2.90;;;12.00;99.90;;;;;;4993898;28;20213;-75
2021/12/29 08:07:52;;;;;;;3.60;2.50;;;12.00;99.90;;;;;;5012367;28;20220;-75
2021/12/29 08:10:18;;;;;;;3.73;2.73;;;12.00;99.90;;;;;;4992760;28;20536;-75
2021/12/29 08:12:44;;;;;;;3.93;3.27;;;12.00;99.90;;;;;;4976902;28;20332;-75
2021/12/29 08:15:11;;;;;;;4.83;2.83;;;12.00;99.90;;;;;;5010611;28;20588;-75
2021/12/29 08:17:39;;;;;;;5.30;2.80;;;12.00;99.90;;;;;;5010267;28;20265;-75
2021/12/29 08:20:06;;;;;;;5.70;3.40;;;12.00;99.90;;;;;;5010961;28;20167;-75
2021/12/29 08:22:31;;;;;;;4.28;3.00;;;12.10;99.90;;;;;;5010790;28;20550;-75
2021/12/29 08:24:58;;;;;;;5.00;2.50;;;12.10;99.90;;;;;;5010608;28;20198;-76
2021/12/29 08:27:23;;;;;;;4.55;2.70;;;12.10;99.90;;;;;;5010128;28;20553;-76
2021/12/29 08:29:49;;;;;;;4.87;2.70;;;12.20;99.90;;;;;;5009796;28;20190;-76
2021/12/29 08:32:15;;;;;;;3.07;2.40;;;12.20;99.90;;;;;;5011056;28;20202;-76
2021/12/29 08:34:41;;;;;;;3.75;2.33;;;12.20;99.90;;;;;;5010602;28;20174;-75
2021/12/29 08:37:06;;;;;;;4.03;2.33;;;12.20;99.90;;;;;;4993138;28;20166;-77
2021/12/29 08:39:33;;;;;;;5.43;2.65;;;12.30;99.90;;;;;;4980383;28;20175;-76
2021/12/29 08:41:59;;;;;;;4.47;2.33;;;12.30;99.90;;;;;;4996783;28;20181;-76
2021/12/29 08:44:24;;;;;;;2.97;2.10;;;12.30;99.90;;;;;;5013830;28;20906;-76
2021/12/29 08:46:50;;;;;;;3.17;2.67;;;12.40;99.90;;;;;;5013572;28;20647;-76
2021/12/29 08:49:16;;;;;;;3.87;2.50;;;12.40;99.90;;;;;;5014249;28;20253;-75
2021/12/29 08:51:43;;;;;;;4.60;2.58;;;12.40;99.90;;;;;;4979895;28;20672;-75
2021/12/29 08:54:09;;;;;;;3.47;2.47;;;12.40;99.90;;;;;;5013662;28;20659;-75
2021/12/29 08:56:35;;;;;;;3.33;2.50;;;12.50;99.90;;;;;;5013393;28;20600;-75
2021/12/29 08:59:02;;;;;;;4.55;2.38;;;12.50;99.90;;;;;;5013396;28;20629;-75
2021/12/29 09:01:27;;;;;;;3.53;2.30;;;12.50;99.90;;;;;;4996267;28;20171;-76
2021/12/29 09:03:54;;;;;;;4.00;2.57;;;12.50;99.90;;;;;;5013693;28;20946;-75
2021/12/29 09:06:20;;;;;;;5.20;2.37;;;12.60;99.90;;;;;;4995903;28;20218;-75
2021/12/29 09:08:47;;;;;;;8.87;2.07;;;12.60;99.90;;;;;;5013607;28;20566;-76
2021/12/29 09:11:13;;;;;;;4.80;1.80;;;12.60;99.90;;;;;;5013952;28;20576;-75
2021/12/29 09:13:40;;;;;;;3.20;2.30;;;12.70;99.90;;;;;;4995275;28;20600;-75
2021/12/29 09:16:07;;;;;;;4.23;2.73;;;12.70;99.90;;;;;;5010864;28;20174;-76
2021/12/29 09:18:35;;;;;;;3.63;1.65;;;12.70;99.90;;;;;;4988988;28;20741;-75
2021/12/29 09:21:06;;;;;;;3.97;1.90;;;12.70;99.90;;;;;;5014283;28;20186;-75
2021/12/29 09:23:33;;;;;;;4.23;2.10;;;12.80;99.90;;;;;;5013240;28;20674;-75
2021/12/29 09:25:59;;;;;;;4.63;2.33;;;12.80;99.90;;;;;;4978725;28;21484;-75
2021/12/29 09:28:25;;;;;;;4.28;2.10;;;12.80;99.90;;;;;;5011107;28;20607;-75
2021/12/29 09:30:54;;;;;;;3.50;1.80;;;12.80;99.90;;;;;;5013548;28;20575;-75
2021/12/29 09:33:20;;;;;;;2.30;1.75;;;12.90;99.90;;;;;;5013167;28;20620;-75
2021/12/29 09:35:52;;;;;;;5.40;2.20;;;12.90;99.90;;;;;;4990632;28;20221;-77
2021/12/29 09:38:19;;;;;;;2.17;1.80;;;12.90;99.90;;;;;;4987891;28;20597;-76
2021/12/29 09:40:47;;;;;;;3.50;2.40;;;13.00;99.90;;;;;;4995675;28;20896;-75
2021/12/29 09:43:13;;;;;;;4.97;2.03;;;13.00;99.90;;;;;;5012321;28;20244;-75
2021/12/29 09:45:41;;;;;;;5.40;2.10;;;13.10;99.90;;;;;;5013318;28;20625;-75
2021/12/29 09:48:07;;;;;;;2.87;1.73;;;13.10;99.90;;;;;;5012992;28;20573;-75
2021/12/29 09:50:35;;;;;;;7.00;2.13;;;13.20;99.90;;;;;;5013667;28;20573;-74
2021/12/29 09:53:01;;;;;;;2.87;1.70;;;13.20;99.90;;;;;;4995610;28;20623;-75
2021/12/29 09:55:27;;;;;;;4.07;3.00;;;13.20;99.90;;;;;;5013326;28;20620;-76
2021/12/29 09:57:57;;;;;;;3.83;2.53;;;13.30;99.90;;;;;;4999044;28;20565;-75
2021/12/29 10:00:41;;;;;;;3.97;2.47;;;13.30;99.90;;;;;;4995423;28;20566;-75
2021/12/29 10:03:10;;;;;;;2.73;2.40;;;13.30;99.90;;;;;;4984916;28;20628;-75
2021/12/29 10:05:37;;;;;;;3.17;2.65;;;13.30;99.90;;;;;;5005031;28;20629;-76
2021/12/29 10:08:15;;;;;;;4.00;2.43;;;13.30;99.90;;;;;;5006473;28;20171;-76
2021/12/29 10:10:50;;;;;;;4.70;2.50;;;13.30;99.90;;;;;;5012364;28;20554;-75
2021/12/29 10:13:16;;;;;;;4.67;2.93;;;13.40;99.90;;;;;;5012280;28;20691;-76
2021/12/29 10:16:00;;;;;;;4.57;3.70;;;13.40;99.90;;;;;;4995059;28;20570;-76
2021/12/29 10:18:29;;;;;;;5.63;3.30;;;13.40;99.90;;;;;;5010547;28;21159;-76
2021/12/29 10:21:00;;;;;;;6.43;4.10;;;13.40;99.90;;;;;;4981256;28;20601;-75
2021/12/29 10:23:42;;;;;;;5.97;3.60;;;13.50;99.90;;;;;;5011364;28;20601;-76
2021/12/29 10:26:32;;;;;;;4.07;3.07;;;13.50;99.90;;;;;;5011532;28;20648;-76
2021/12/29 10:29:03;;;;;;;5.50;3.17;;;13.60;99.90;;;;;;5010484;28;20589;-77
2021/12/29 10:31:32;;;;;;;5.53;3.87;;;13.70;99.90;;;;;;5011789;28;20574;-76
2021/12/29 10:34:09;;;;;;;7.47;4.07;;;13.70;99.90;;;;;;5011004;28;21059;-76
2021/12/29 10:36:44;;;;;;;5.10;3.57;;;13.80;99.90;;;;;;5010790;28;20705;-77
2021/12/29 10:39:12;;;;;;;5.40;4.07;;;13.90;99.90;;;;;;5009274;28;20613;-76
2021/12/29 10:41:58;;;;;;;6.60;3.90;;;14.00;99.90;;;;;;5012011;28;20584;-76
2021/12/29 10:44:30;;;;;;;4.87;3.20;;;14.00;99.90;;;;;;5011666;28;20577;-76
2021/12/29 10:46:58;;;;;;;3.53;2.77;;;14.00;99.90;;;;;;4993439;28;20655;-76
2021/12/29 10:49:26;;;;;;;3.90;3.00;;;14.10;99.90;;;;;;5013243;28;20660;-76
2021/12/29 10:51:56;;;;;;;5.87;2.47;;;14.10;99.90;;;;;;5012004;28;20557;-76
2021/12/29 10:54:25;;;;;;;2.67;2.47;;;14.10;99.90;;;;;;5010835;28;20564;-76
2021/12/29 10:57:03;;;;;;;5.03;2.73;;;14.10;99.90;;;;;;5010947;28;20923;-75
2021/12/29 10:59:33;;;;;;;3.57;2.40;;;14.20;99.90;;;;;;4992560;28;21186;-76
2021/12/29 11:02:00;;;;;;;5.10;2.77;;;14.20;99.90;;;;;;5011174;28;20578;-75
2021/12/29 11:04:27;;;;;;;4.33;2.40;;;14.20;99.90;;;;;;5011042;28;20927;-75
2021/12/29 11:06:56;;;;;;;2.60;2.40;;;14.20;99.90;;;;;;4991396;28;21223;-75
2021/12/29 11:09:34;;;;;;;4.03;2.17;;;14.20;99.90;;;;;;5009090;28;20617;-75
2021/12/29 11:12:08;;;;;;;2.93;2.20;;;14.20;99.90;;;;;;4994926;28;20588;-75
2021/12/29 11:14:37;;;;;;;4.00;2.63;;;14.20;99.90;;;;;;5011604;28;20657;-75
2021/12/29 11:17:17;;;;;;;3.50;2.00;;;14.20;99.90;;;;;;5008285;28;20573;-75
2021/12/29 11:19:59;;;;;;;3.97;2.50;;;14.20;99.90;;;;;;5009016;28;20612;-75
2021/12/29 11:22:29;;;;;;;2.27;1.67;;;14.30;99.90;;;;;;5011870;28;20612;-74
2021/12/29 11:24:57;;;;;;;3.57;2.30;;;14.30;99.90;;;;;;4992601;28;20619;-75
2021/12/29 11:27:24;;;;;;;2.87;2.00;;;14.40;99.90;;;;;;5014080;28;20569;-75
2021/12/29 11:29:58;;;;;;;2.37;2.17;;;14.40;99.90;;;;;;5018589;28;20570;-75
2021/12/29 11:32:36;;;;;;;3.03;2.37;;;14.50;99.90;;;;;;4994648;28;20608;-76
2021/12/29 11:35:12;;;;;;;2.37;2.03;;;14.60;99.90;;;;;;4994663;28;20573;-77
2021/12/29 11:37:44;;;;;;;3.83;1.90;;;14.60;99.90;;;;;;5011921;28;20667;-76
2021/12/29 11:40:15;;;;;;;5.03;2.50;;;14.70;99.90;;;;;;5012416;28;20569;-76
2021/12/29 11:42:41;;;;;;;2.50;2.03;;;14.70;99.90;;;;;;5016078;23;20635;-72
2021/12/29 11:45:09;;;;;;;3.17;1.73;;;14.80;99.90;;;;;;4973909;28;20654;-72
2021/12/29 11:47:34;;;;;;;2.30;1.97;;;14.80;99.90;;;;;;4991962;28;21032;-72
2021/12/29 11:50:02;;;;;;;2.40;1.53;;;14.80;99.90;;;;;;4991839;28;20589;-72
2021/12/29 11:52:59;;;;;;;2.03;1.47;;;14.90;99.90;;;;;;4958056;28;21253;-72
2021/12/29 11:55:30;;;;;;;2.37;1.47;;;14.90;99.90;;;;;;4991722;28;20616;-73
2021/12/29 11:58:07;;;;;;;1.93;1.40;;;15.00;99.90;;;;;;4974506;28;20628;-72
2021/12/29 12:00:33;;;;;;;2.83;1.60;;;15.00;99.90;;;;;;4991454;28;20566;-72
2021/12/29 12:03:11;;;;;;;2.27;1.07;;;15.10;99.90;;;;;;4991675;28;20668;-72
2021/12/29 12:05:41;;;;;;;1.83;1.40;;;15.00;99.90;;;;;;4991304;28;20830;-73
2021/12/29 12:08:14;;;;;;;4.53;1.10;;;15.00;99.90;;;;;;4974071;28;20577;-72
2021/12/29 12:10:41;;;;;;;1.53;0.83;;;15.00;99.90;;;;;;4991182;28;20971;-72
2021/12/29 12:13:28;;;;;;;2.37;0.80;;;15.00;99.90;;;;;;4993026;28;20602;-72
2021/12/29 12:16:21;;;;;;;3.20;0.97;;;15.00;99.90;;;;;;4994897;28;20613;-73
2021/12/29 12:18:53;;;;;;;1.60;1.10;;;15.00;99.90;;;;;;4992687;28;20720;-73
2021/12/29 12:21:33;;;;;;;1.60;0.70;;;15.00;99.90;;;;;;4994728;28;20660;-73
2021/12/29 12:24:19;;;;;;;2.60;0.80;;;14.90;99.90;;;;;;4995199;28;21057;-73
2021/12/29 12:26:56;;;;;;;1.77;0.80;;;14.90;99.90;;;;;;4994575;28;20640;-73
2021/12/29 12:29:25;;;;;;;1.90;0.90;;;14.80;99.90;;;;;;4995037;28;20572;-73
2021/12/29 12:32:06;;;;;;;1.57;0.80;;;14.80;99.90;;;;;;4994933;28;20582;-72
2021/12/29 12:34:34;;;;;;;1.57;0.80;;;14.70;99.90;;;;;;4994910;28;20594;-73
2021/12/29 12:37:11;;;;;;;2.10;1.20;;;14.70;99.90;;;;;;4994579;28;21046;-73
2021/12/29 12:39:37;;;;;;;2.33;0.73;;;14.60;99.90;;;;;;4994817;28;20566;-73
2021/12/29 12:42:02;;;;;;;1.73;0.70;;;14.60;99.90;;;;;;4983870;28;20593;-72
2021/12/29 12:44:35;;;;;;;1.87;0.90;;;14.50;99.90;;;;;;4958057;28;20203;-73
2021/12/29 12:47:10;;;;;;;2.40;0.80;;;14.50;99.90;;;;;;4975182;28;20712;-72
2021/12/29 12:49:47;;;;;;;3.07;0.70;;;14.50;99.90;;;;;;4975012;28;20963;-73
2021/12/29 12:52:13;;;;;;;1.30;0.77;;;14.40;99.90;;;;;;4975178;28;20579;-73
2021/12/29 12:54:57;;;;;;;2.33;0.80;;;14.30;99.90;;;;;;4975106;28;20598;-73
2021/12/29 12:57:34;;;;;;;1.83;0.80;;;14.30;99.90;;;;;;4974913;28;21153;-73